sensor_id;sensor_type;location;lat;lon;timestamp;P1;durP1;ratioP1;P2;durP2;ratioP2
3433;SDS011;1730;41.932;25.548;2024-03-02T00:00:42;75.50;;;38.33;;
3433;SDS011;1730;41.932;25.548;2024-03-02T00:03:08;61.97;;;33.67;;
3433;SDS011;1730;41.932;25.548;2024-03-02T00:05:34;66.07;;;35.03;;
3433;SDS011;1730;41.932;25.548;2024-03-02T00:08:00;60.57;;;33.33;;
3433;SDS011;1730;41.932;25.548;2024-03-02T00:10:26;73.87;;;34.90;;
3433;SDS011;1730;41.932;25.548;2024-03-02T00:12:56;71.47;;;36.43;;
3433;SDS011;1730;41.932;25.548;2024-03-02T00:18:18;73.80;;;37.13;;
3433;SDS011;1730;41.932;25.548;2024-03-02T00:20:45;73.87;;;36.37;;
3433;SDS011;1730;41.932;25.548;2024-03-02T00:23:12;69.37;;;36.40;;
3433;SDS011;1730;41.932;25.548;2024-03-02T00:28:11;58.60;;;30.27;;
3433;SDS011;1730;41.932;25.548;2024-03-02T00:33:09;60.97;;;33.07;;
3433;SDS011;1730;41.932;25.548;2024-03-02T00:35:35;52.43;;;31.63;;
3433;SDS011;1730;41.932;25.548;2024-03-02T00:38:04;62.80;;;32.70;;
3433;SDS011;1730;41.932;25.548;2024-03-02T00:40:31;65.50;;;35.03;;
3433;SDS011;1730;41.932;25.548;2024-03-02T00:42:56;60.33;;;32.97;;
3433;SDS011;1730;41.932;25.548;2024-03-02T00:45:22;72.57;;;34.77;;
3433;SDS011;1730;41.932;25.548;2024-03-02T00:47:50;62.00;;;35.17;;
3433;SDS011;1730;41.932;25.548;2024-03-02T00:50:16;66.77;;;36.80;;
3433;SDS011;1730;41.932;25.548;2024-03-02T00:52:42;67.90;;;36.60;;
3433;SDS011;1730;41.932;25.548;2024-03-02T00:55:08;69.23;;;36.73;;
3433;SDS011;1730;41.932;25.548;2024-03-02T00:57:34;70.03;;;37.70;;
3433;SDS011;1730;41.932;25.548;2024-03-02T01:00:00;86.87;;;39.30;;
3433;SDS011;1730;41.932;25.548;2024-03-02T01:02:26;74.50;;;38.20;;
3433;SDS011;1730;41.932;25.548;2024-03-02T01:04:52;60.20;;;34.77;;
3433;SDS011;1730;41.932;25.548;2024-03-02T01:07:17;69.17;;;36.13;;
3433;SDS011;1730;41.932;25.548;2024-03-02T01:09:43;83.43;;;38.43;;
3433;SDS011;1730;41.932;25.548;2024-03-02T01:12:10;74.70;;;35.57;;
3433;SDS011;1730;41.932;25.548;2024-03-02T01:14:35;75.50;;;38.10;;
3433;SDS011;1730;41.932;25.548;2024-03-02T01:17:01;79.03;;;35.90;;
3433;SDS011;1730;41.932;25.548;2024-03-02T01:19:29;74.17;;;38.40;;
3433;SDS011;1730;41.932;25.548;2024-03-02T01:21:55;80.60;;;38.10;;
3433;SDS011;1730;41.932;25.548;2024-03-02T01:24:22;75.53;;;38.80;;
3433;SDS011;1730;41.932;25.548;2024-03-02T01:26:47;66.80;;;36.00;;
3433;SDS011;1730;41.932;25.548;2024-03-02T01:29:13;69.57;;;41.03;;
3433;SDS011;1730;41.932;25.548;2024-03-02T01:31:38;79.20;;;38.63;;
3433;SDS011;1730;41.932;25.548;2024-03-02T01:34:07;72.20;;;37.80;;
3433;SDS011;1730;41.932;25.548;2024-03-02T01:36:32;68.73;;;38.70;;
3433;SDS011;1730;41.932;25.548;2024-03-02T01:38:58;75.93;;;40.63;;
3433;SDS011;1730;41.932;25.548;2024-03-02T01:41:23;75.90;;;39.83;;
3433;SDS011;1730;41.932;25.548;2024-03-02T01:43:49;79.77;;;41.60;;
3433;SDS011;1730;41.932;25.548;2024-03-02T01:46:14;75.73;;;40.73;;
3433;SDS011;1730;41.932;25.548;2024-03-02T01:48:40;82.13;;;38.90;;
3433;SDS011;1730;41.932;25.548;2024-03-02T01:51:06;85.10;;;41.10;;
3433;SDS011;1730;41.932;25.548;2024-03-02T01:53:32;79.67;;;40.30;;
3433;SDS011;1730;41.932;25.548;2024-03-02T01:55:58;89.07;;;40.87;;
3433;SDS011;1730;41.932;25.548;2024-03-02T01:58:24;97.07;;;45.33;;
3433;SDS011;1730;41.932;25.548;2024-03-02T02:00:50;100.60;;;47.80;;
3433;SDS011;1730;41.932;25.548;2024-03-02T02:03:16;96.70;;;44.47;;
3433;SDS011;1730;41.932;25.548;2024-03-02T02:05:42;86.07;;;42.80;;
3433;SDS011;1730;41.932;25.548;2024-03-02T02:08:08;101.77;;;47.43;;
3433;SDS011;1730;41.932;25.548;2024-03-02T02:10:33;85.97;;;43.60;;
3433;SDS011;1730;41.932;25.548;2024-03-02T02:12:59;103.90;;;46.10;;
3433;SDS011;1730;41.932;25.548;2024-03-02T02:15:25;115.10;;;47.83;;
3433;SDS011;1730;41.932;25.548;2024-03-02T02:17:53;108.80;;;47.10;;
3433;SDS011;1730;41.932;25.548;2024-03-02T02:20:19;105.47;;;45.00;;
3433;SDS011;1730;41.932;25.548;2024-03-02T02:25:24;96.77;;;45.40;;
3433;SDS011;1730;41.932;25.548;2024-03-02T02:27:49;97.03;;;43.87;;
3433;SDS011;1730;41.932;25.548;2024-03-02T02:30:22;96.03;;;40.13;;
3433;SDS011;1730;41.932;25.548;2024-03-02T02:32:52;100.33;;;40.70;;
3433;SDS011;1730;41.932;25.548;2024-03-02T02:35:18;101.70;;;45.00;;
3433;SDS011;1730;41.932;25.548;2024-03-02T02:37:46;97.27;;;42.27;;
3433;SDS011;1730;41.932;25.548;2024-03-02T02:40:12;88.37;;;41.30;;
3433;SDS011;1730;41.932;25.548;2024-03-02T02:42:38;102.53;;;40.63;;
3433;SDS011;1730;41.932;25.548;2024-03-02T02:45:05;89.63;;;37.70;;
3433;SDS011;1730;41.932;25.548;2024-03-02T02:47:31;85.97;;;39.17;;
3433;SDS011;1730;41.932;25.548;2024-03-02T02:50:00;81.13;;;37.60;;
3433;SDS011;1730;41.932;25.548;2024-03-02T02:52:31;87.93;;;37.37;;
3433;SDS011;1730;41.932;25.548;2024-03-02T02:54:58;78.93;;;34.37;;
3433;SDS011;1730;41.932;25.548;2024-03-02T02:57:24;94.73;;;36.93;;
3433;SDS011;1730;41.932;25.548;2024-03-02T02:59:50;76.83;;;37.50;;
3433;SDS011;1730;41.932;25.548;2024-03-02T03:02:15;80.63;;;38.23;;
3433;SDS011;1730;41.932;25.548;2024-03-02T03:04:41;75.30;;;36.83;;
3433;SDS011;1730;41.932;25.548;2024-03-02T03:07:06;81.97;;;36.90;;
3433;SDS011;1730;41.932;25.548;2024-03-02T03:09:32;85.17;;;40.00;;
3433;SDS011;1730;41.932;25.548;2024-03-02T03:11:58;90.87;;;42.27;;
3433;SDS011;1730;41.932;25.548;2024-03-02T03:14:23;79.07;;;39.67;;
3433;SDS011;1730;41.932;25.548;2024-03-02T03:16:49;101.30;;;40.80;;
3433;SDS011;1730;41.932;25.548;2024-03-02T03:19:15;94.63;;;39.40;;
3433;SDS011;1730;41.932;25.548;2024-03-02T03:21:40;81.37;;;41.17;;
3433;SDS011;1730;41.932;25.548;2024-03-02T03:24:06;90.47;;;40.70;;
3433;SDS011;1730;41.932;25.548;2024-03-02T03:26:31;81.33;;;35.83;;
3433;SDS011;1730;41.932;25.548;2024-03-02T03:28:57;90.40;;;40.50;;
3433;SDS011;1730;41.932;25.548;2024-03-02T03:31:23;86.97;;;39.97;;
3433;SDS011;1730;41.932;25.548;2024-03-02T03:33:48;90.30;;;42.60;;
3433;SDS011;1730;41.932;25.548;2024-03-02T03:36:14;101.50;;;37.30;;
3433;SDS011;1730;41.932;25.548;2024-03-02T03:38:40;97.67;;;39.10;;
3433;SDS011;1730;41.932;25.548;2024-03-02T03:41:06;97.83;;;39.80;;
3433;SDS011;1730;41.932;25.548;2024-03-02T03:43:31;99.63;;;39.20;;
3433;SDS011;1730;41.932;25.548;2024-03-02T03:45:57;91.07;;;35.50;;
3433;SDS011;1730;41.932;25.548;2024-03-02T03:48:22;77.43;;;34.03;;
3433;SDS011;1730;41.932;25.548;2024-03-02T03:50:48;93.77;;;37.73;;
3433;SDS011;1730;41.932;25.548;2024-03-02T03:53:13;93.63;;;38.60;;
3433;SDS011;1730;41.932;25.548;2024-03-02T03:55:40;107.00;;;40.53;;
3433;SDS011;1730;41.932;25.548;2024-03-02T03:58:05;99.17;;;38.30;;
3433;SDS011;1730;41.932;25.548;2024-03-02T04:00:31;97.23;;;40.67;;
3433;SDS011;1730;41.932;25.548;2024-03-02T04:02:56;97.77;;;39.17;;
3433;SDS011;1730;41.932;25.548;2024-03-02T04:05:22;92.30;;;39.33;;
3433;SDS011;1730;41.932;25.548;2024-03-02T04:07:47;113.27;;;43.57;;
3433;SDS011;1730;41.932;25.548;2024-03-02T04:10:12;117.37;;;47.97;;
3433;SDS011;1730;41.932;25.548;2024-03-02T04:12:38;106.30;;;40.80;;
3433;SDS011;1730;41.932;25.548;2024-03-02T04:15:04;88.73;;;39.03;;
3433;SDS011;1730;41.932;25.548;2024-03-02T04:17:31;91.00;;;38.10;;
3433;SDS011;1730;41.932;25.548;2024-03-02T04:19:58;130.10;;;39.80;;
3433;SDS011;1730;41.932;25.548;2024-03-02T04:22:25;116.60;;;41.20;;
3433;SDS011;1730;41.932;25.548;2024-03-02T04:24:51;101.77;;;43.23;;
3433;SDS011;1730;41.932;25.548;2024-03-02T04:27:17;118.00;;;37.33;;
3433;SDS011;1730;41.932;25.548;2024-03-02T04:29:42;95.30;;;37.93;;
3433;SDS011;1730;41.932;25.548;2024-03-02T04:32:08;97.53;;;38.20;;
3433;SDS011;1730;41.932;25.548;2024-03-02T04:34:33;95.57;;;38.63;;
3433;SDS011;1730;41.932;25.548;2024-03-02T04:36:59;104.17;;;36.63;;
3433;SDS011;1730;41.932;25.548;2024-03-02T04:39:26;90.07;;;36.87;;
3433;SDS011;1730;41.932;25.548;2024-03-02T04:41:51;101.17;;;38.77;;
3433;SDS011;1730;41.932;25.548;2024-03-02T04:44:17;113.70;;;37.73;;
3433;SDS011;1730;41.932;25.548;2024-03-02T04:46:42;81.47;;;37.37;;
3433;SDS011;1730;41.932;25.548;2024-03-02T04:49:08;103.57;;;39.47;;
3433;SDS011;1730;41.932;25.548;2024-03-02T04:51:33;103.10;;;38.07;;
3433;SDS011;1730;41.932;25.548;2024-03-02T04:53:59;91.70;;;38.63;;
3433;SDS011;1730;41.932;25.548;2024-03-02T04:56:24;76.87;;;35.30;;
3433;SDS011;1730;41.932;25.548;2024-03-02T04:58:56;103.40;;;39.67;;
3433;SDS011;1730;41.932;25.548;2024-03-02T05:01:21;100.13;;;38.93;;
3433;SDS011;1730;41.932;25.548;2024-03-02T05:03:47;95.57;;;38.30;;
3433;SDS011;1730;41.932;25.548;2024-03-02T05:06:12;86.23;;;37.33;;
3433;SDS011;1730;41.932;25.548;2024-03-02T05:08:38;97.87;;;39.50;;
3433;SDS011;1730;41.932;25.548;2024-03-02T05:11:03;97.73;;;37.67;;
3433;SDS011;1730;41.932;25.548;2024-03-02T05:13:49;96.27;;;39.40;;
3433;SDS011;1730;41.932;25.548;2024-03-02T05:16:15;94.87;;;41.93;;
3433;SDS011;1730;41.932;25.548;2024-03-02T05:18:40;103.43;;;41.90;;
3433;SDS011;1730;41.932;25.548;2024-03-02T05:21:06;95.20;;;40.50;;
3433;SDS011;1730;41.932;25.548;2024-03-02T05:23:31;96.13;;;39.53;;
3433;SDS011;1730;41.932;25.548;2024-03-02T05:25:57;114.17;;;44.70;;
3433;SDS011;1730;41.932;25.548;2024-03-02T05:28:22;110.37;;;42.37;;
3433;SDS011;1730;41.932;25.548;2024-03-02T05:30:48;101.93;;;43.37;;
3433;SDS011;1730;41.932;25.548;2024-03-02T05:33:14;96.13;;;40.80;;
3433;SDS011;1730;41.932;25.548;2024-03-02T05:35:40;115.50;;;41.97;;
3433;SDS011;1730;41.932;25.548;2024-03-02T05:38:06;88.80;;;40.00;;
3433;SDS011;1730;41.932;25.548;2024-03-02T05:40:31;97.50;;;39.83;;
3433;SDS011;1730;41.932;25.548;2024-03-02T05:42:58;84.93;;;40.57;;
3433;SDS011;1730;41.932;25.548;2024-03-02T05:45:24;101.03;;;41.50;;
3433;SDS011;1730;41.932;25.548;2024-03-02T05:47:49;102.60;;;44.03;;
3433;SDS011;1730;41.932;25.548;2024-03-02T05:50:15;98.93;;;37.70;;
3433;SDS011;1730;41.932;25.548;2024-03-02T05:52:40;82.60;;;38.60;;
3433;SDS011;1730;41.932;25.548;2024-03-02T05:55:06;87.97;;;39.73;;
3433;SDS011;1730;41.932;25.548;2024-03-02T05:57:31;104.53;;;49.80;;
3433;SDS011;1730;41.932;25.548;2024-03-02T06:00:12;82.70;;;40.70;;
3433;SDS011;1730;41.932;25.548;2024-03-02T06:02:41;92.67;;;41.90;;
3433;SDS011;1730;41.932;25.548;2024-03-02T06:05:07;75.57;;;38.17;;
3433;SDS011;1730;41.932;25.548;2024-03-02T06:07:32;80.10;;;38.77;;
3433;SDS011;1730;41.932;25.548;2024-03-02T06:09:58;84.97;;;42.60;;
3433;SDS011;1730;41.932;25.548;2024-03-02T06:12:25;75.53;;;39.10;;
3433;SDS011;1730;41.932;25.548;2024-03-02T06:14:51;82.80;;;42.27;;
3433;SDS011;1730;41.932;25.548;2024-03-02T06:17:16;83.23;;;42.60;;
3433;SDS011;1730;41.932;25.548;2024-03-02T06:19:42;91.80;;;44.43;;
3433;SDS011;1730;41.932;25.548;2024-03-02T06:22:07;74.90;;;37.77;;
3433;SDS011;1730;41.932;25.548;2024-03-02T06:24:35;59.33;;;34.17;;
3433;SDS011;1730;41.932;25.548;2024-03-02T06:27:02;69.63;;;35.70;;
3433;SDS011;1730;41.932;25.548;2024-03-02T06:29:27;64.97;;;37.27;;
3433;SDS011;1730;41.932;25.548;2024-03-02T06:31:53;71.33;;;39.47;;
3433;SDS011;1730;41.932;25.548;2024-03-02T06:34:19;76.80;;;40.07;;
3433;SDS011;1730;41.932;25.548;2024-03-02T06:36:44;80.90;;;40.57;;
3433;SDS011;1730;41.932;25.548;2024-03-02T06:39:10;77.00;;;40.03;;
3433;SDS011;1730;41.932;25.548;2024-03-02T06:41:35;56.83;;;33.17;;
3433;SDS011;1730;41.932;25.548;2024-03-02T06:44:00;61.57;;;34.50;;
3433;SDS011;1730;41.932;25.548;2024-03-02T06:46:26;66.10;;;36.90;;
3433;SDS011;1730;41.932;25.548;2024-03-02T06:48:52;68.33;;;35.83;;
3433;SDS011;1730;41.932;25.548;2024-03-02T06:51:19;49.70;;;32.20;;
3433;SDS011;1730;41.932;25.548;2024-03-02T06:53:45;51.10;;;33.00;;
3433;SDS011;1730;41.932;25.548;2024-03-02T06:56:12;48.23;;;29.30;;
3433;SDS011;1730;41.932;25.548;2024-03-02T06:58:37;47.60;;;30.70;;
3433;SDS011;1730;41.932;25.548;2024-03-02T07:01:03;57.40;;;30.70;;
3433;SDS011;1730;41.932;25.548;2024-03-02T07:03:28;54.03;;;32.00;;
3433;SDS011;1730;41.932;25.548;2024-03-02T07:05:54;43.70;;;29.60;;
3433;SDS011;1730;41.932;25.548;2024-03-02T07:08:19;44.83;;;26.13;;
3433;SDS011;1730;41.932;25.548;2024-03-02T07:10:45;45.10;;;29.40;;
3433;SDS011;1730;41.932;25.548;2024-03-02T07:13:11;48.10;;;28.00;;
3433;SDS011;1730;41.932;25.548;2024-03-02T07:15:38;43.67;;;25.87;;
3433;SDS011;1730;41.932;25.548;2024-03-02T07:18:22;44.00;;;25.67;;
3433;SDS011;1730;41.932;25.548;2024-03-02T07:20:47;39.73;;;26.90;;
3433;SDS011;1730;41.932;25.548;2024-03-02T07:23:26;44.00;;;27.50;;
3433;SDS011;1730;41.932;25.548;2024-03-02T07:25:53;45.10;;;29.73;;
3433;SDS011;1730;41.932;25.548;2024-03-02T07:28:24;47.87;;;29.20;;
3433;SDS011;1730;41.932;25.548;2024-03-02T07:31:04;41.40;;;25.97;;
3433;SDS011;1730;41.932;25.548;2024-03-02T07:33:30;47.87;;;27.97;;
3433;SDS011;1730;41.932;25.548;2024-03-02T07:35:56;48.13;;;27.70;;
3433;SDS011;1730;41.932;25.548;2024-03-02T07:38:24;39.80;;;25.20;;
3433;SDS011;1730;41.932;25.548;2024-03-02T07:40:51;42.43;;;26.00;;
3433;SDS011;1730;41.932;25.548;2024-03-02T07:43:18;50.53;;;29.33;;
3433;SDS011;1730;41.932;25.548;2024-03-02T07:45:44;46.70;;;27.70;;
3433;SDS011;1730;41.932;25.548;2024-03-02T07:48:10;47.63;;;27.90;;
3433;SDS011;1730;41.932;25.548;2024-03-02T07:50:36;43.50;;;26.40;;
3433;SDS011;1730;41.932;25.548;2024-03-02T07:53:02;42.60;;;26.60;;
3433;SDS011;1730;41.932;25.548;2024-03-02T07:55:29;41.37;;;26.67;;
3433;SDS011;1730;41.932;25.548;2024-03-02T07:57:55;40.33;;;25.10;;
3433;SDS011;1730;41.932;25.548;2024-03-02T08:00:21;43.60;;;27.27;;
3433;SDS011;1730;41.932;25.548;2024-03-02T08:02:50;45.67;;;30.60;;
3433;SDS011;1730;41.932;25.548;2024-03-02T08:05:18;39.60;;;27.27;;
3433;SDS011;1730;41.932;25.548;2024-03-02T08:07:45;38.10;;;24.80;;
3433;SDS011;1730;41.932;25.548;2024-03-02T08:10:11;39.87;;;24.17;;
3433;SDS011;1730;41.932;25.548;2024-03-02T08:12:46;44.70;;;26.50;;
3433;SDS011;1730;41.932;25.548;2024-03-02T08:15:35;34.63;;;25.00;;
3433;SDS011;1730;41.932;25.548;2024-03-02T08:18:00;38.77;;;25.47;;
3433;SDS011;1730;41.932;25.548;2024-03-02T08:20:26;39.57;;;26.63;;
3433;SDS011;1730;41.932;25.548;2024-03-02T08:22:52;40.53;;;28.37;;
3433;SDS011;1730;41.932;25.548;2024-03-02T08:25:20;50.40;;;30.63;;
3433;SDS011;1730;41.932;25.548;2024-03-02T08:27:47;36.97;;;26.90;;
3433;SDS011;1730;41.932;25.548;2024-03-02T08:30:12;40.30;;;25.90;;
3433;SDS011;1730;41.932;25.548;2024-03-02T08:32:41;37.57;;;25.10;;
3433;SDS011;1730;41.932;25.548;2024-03-02T08:35:07;40.57;;;27.07;;
3433;SDS011;1730;41.932;25.548;2024-03-02T08:37:33;40.20;;;27.57;;
3433;SDS011;1730;41.932;25.548;2024-03-02T08:39:58;43.50;;;29.63;;
3433;SDS011;1730;41.932;25.548;2024-03-02T08:42:24;42.97;;;28.10;;
3433;SDS011;1730;41.932;25.548;2024-03-02T08:44:50;40.47;;;27.00;;
3433;SDS011;1730;41.932;25.548;2024-03-02T08:47:40;42.73;;;27.97;;
3433;SDS011;1730;41.932;25.548;2024-03-02T08:50:12;42.97;;;27.57;;
3433;SDS011;1730;41.932;25.548;2024-03-02T08:52:38;48.17;;;30.70;;
3433;SDS011;1730;41.932;25.548;2024-03-02T08:55:04;50.93;;;30.77;;
3433;SDS011;1730;41.932;25.548;2024-03-02T08:57:30;44.57;;;30.43;;
3433;SDS011;1730;41.932;25.548;2024-03-02T08:59:56;44.03;;;30.70;;
3433;SDS011;1730;41.932;25.548;2024-03-02T09:02:22;58.13;;;31.90;;
3433;SDS011;1730;41.932;25.548;2024-03-02T09:04:48;47.20;;;31.63;;
3433;SDS011;1730;41.932;25.548;2024-03-02T09:07:15;55.20;;;33.30;;
3433;SDS011;1730;41.932;25.548;2024-03-02T09:09:40;52.63;;;32.87;;
3433;SDS011;1730;41.932;25.548;2024-03-02T09:12:06;46.10;;;31.60;;
3433;SDS011;1730;41.932;25.548;2024-03-02T09:14:32;46.57;;;31.90;;
3433;SDS011;1730;41.932;25.548;2024-03-02T09:16:58;48.37;;;32.67;;
3433;SDS011;1730;41.932;25.548;2024-03-02T09:19:24;46.13;;;31.30;;
3433;SDS011;1730;41.932;25.548;2024-03-02T09:21:50;58.63;;;32.93;;
3433;SDS011;1730;41.932;25.548;2024-03-02T09:24:16;56.47;;;35.23;;
3433;SDS011;1730;41.932;25.548;2024-03-02T09:26:41;48.93;;;35.90;;
3433;SDS011;1730;41.932;25.548;2024-03-02T09:29:07;56.83;;;35.60;;
3433;SDS011;1730;41.932;25.548;2024-03-02T09:31:39;58.00;;;37.93;;
3433;SDS011;1730;41.932;25.548;2024-03-02T09:34:08;54.70;;;37.43;;
3433;SDS011;1730;41.932;25.548;2024-03-02T09:36:33;56.70;;;37.37;;
3433;SDS011;1730;41.932;25.548;2024-03-02T09:38:59;66.37;;;41.40;;
3433;SDS011;1730;41.932;25.548;2024-03-02T09:41:24;64.53;;;40.40;;
3433;SDS011;1730;41.932;25.548;2024-03-02T09:43:50;66.03;;;39.43;;
3433;SDS011;1730;41.932;25.548;2024-03-02T09:46:16;71.47;;;41.03;;
3433;SDS011;1730;41.932;25.548;2024-03-02T09:48:43;72.30;;;42.93;;
3433;SDS011;1730;41.932;25.548;2024-03-02T09:51:09;81.73;;;45.77;;
3433;SDS011;1730;41.932;25.548;2024-03-02T09:53:36;68.23;;;44.10;;
3433;SDS011;1730;41.932;25.548;2024-03-02T09:56:02;88.63;;;44.20;;
3433;SDS011;1730;41.932;25.548;2024-03-02T09:58:29;76.10;;;41.37;;
3433;SDS011;1730;41.932;25.548;2024-03-02T10:00:54;76.90;;;42.43;;
3433;SDS011;1730;41.932;25.548;2024-03-02T10:03:20;78.43;;;44.50;;
3433;SDS011;1730;41.932;25.548;2024-03-02T10:05:46;70.57;;;42.30;;
3433;SDS011;1730;41.932;25.548;2024-03-02T10:08:12;67.37;;;38.37;;
3433;SDS011;1730;41.932;25.548;2024-03-02T10:10:38;63.10;;;40.13;;
3433;SDS011;1730;41.932;25.548;2024-03-02T10:13:09;70.50;;;38.73;;
3433;SDS011;1730;41.932;25.548;2024-03-02T10:15:35;59.40;;;36.93;;
3433;SDS011;1730;41.932;25.548;2024-03-02T10:18:03;66.53;;;37.43;;
3433;SDS011;1730;41.932;25.548;2024-03-02T10:20:29;69.63;;;37.87;;
3433;SDS011;1730;41.932;25.548;2024-03-02T10:22:55;66.30;;;38.07;;
3433;SDS011;1730;41.932;25.548;2024-03-02T10:25:34;67.60;;;39.23;;
3433;SDS011;1730;41.932;25.548;2024-03-02T10:28:00;60.73;;;37.63;;
3433;SDS011;1730;41.932;25.548;2024-03-02T10:30:29;70.57;;;39.57;;
3433;SDS011;1730;41.932;25.548;2024-03-02T10:32:55;77.47;;;38.53;;
3433;SDS011;1730;41.932;25.548;2024-03-02T10:35:21;61.03;;;39.47;;
3433;SDS011;1730;41.932;25.548;2024-03-02T10:37:48;57.80;;;34.67;;
3433;SDS011;1730;41.932;25.548;2024-03-02T10:40:14;65.57;;;38.00;;
3433;SDS011;1730;41.932;25.548;2024-03-02T10:42:41;75.80;;;38.07;;
3433;SDS011;1730;41.932;25.548;2024-03-02T10:45:10;74.00;;;38.80;;
3433;SDS011;1730;41.932;25.548;2024-03-02T10:47:37;81.50;;;38.27;;
3433;SDS011;1730;41.932;25.548;2024-03-02T10:50:06;65.93;;;39.83;;
3433;SDS011;1730;41.932;25.548;2024-03-02T10:52:35;66.93;;;43.07;;
3433;SDS011;1730;41.932;25.548;2024-03-02T10:55:05;66.47;;;42.43;;
3433;SDS011;1730;41.932;25.548;2024-03-02T10:57:33;62.63;;;41.07;;
3433;SDS011;1730;41.932;25.548;2024-03-02T11:00:07;67.93;;;40.90;;
3433;SDS011;1730;41.932;25.548;2024-03-02T11:02:46;55.57;;;38.93;;
3433;SDS011;1730;41.932;25.548;2024-03-02T11:05:17;63.23;;;40.23;;
3433;SDS011;1730;41.932;25.548;2024-03-02T11:07:52;70.30;;;39.43;;
3433;SDS011;1730;41.932;25.548;2024-03-02T11:10:22;68.03;;;37.20;;
3433;SDS011;1730;41.932;25.548;2024-03-02T11:12:53;77.10;;;41.90;;
3433;SDS011;1730;41.932;25.548;2024-03-02T11:15:24;69.23;;;40.03;;
3433;SDS011;1730;41.932;25.548;2024-03-02T11:17:52;66.93;;;41.90;;
3433;SDS011;1730;41.932;25.548;2024-03-02T11:20:18;69.83;;;44.33;;
3433;SDS011;1730;41.932;25.548;2024-03-02T11:22:45;76.43;;;42.47;;
3433;SDS011;1730;41.932;25.548;2024-03-02T11:25:26;74.30;;;46.07;;
3433;SDS011;1730;41.932;25.548;2024-03-02T11:32:57;73.83;;;42.27;;
3433;SDS011;1730;41.932;25.548;2024-03-02T11:35:29;73.33;;;43.93;;
3433;SDS011;1730;41.932;25.548;2024-03-02T11:37:54;87.23;;;45.73;;
3433;SDS011;1730;41.932;25.548;2024-03-02T11:40:28;67.17;;;42.13;;
3433;SDS011;1730;41.932;25.548;2024-03-02T11:42:55;72.13;;;43.73;;
3433;SDS011;1730;41.932;25.548;2024-03-02T11:45:31;68.03;;;42.50;;
3433;SDS011;1730;41.932;25.548;2024-03-02T11:47:58;74.17;;;42.77;;
3433;SDS011;1730;41.932;25.548;2024-03-02T11:50:46;63.57;;;40.70;;
3433;SDS011;1730;41.932;25.548;2024-03-02T11:53:14;74.23;;;40.10;;
3433;SDS011;1730;41.932;25.548;2024-03-02T11:55:40;58.87;;;35.87;;
3433;SDS011;1730;41.932;25.548;2024-03-02T11:58:06;66.77;;;36.97;;
3433;SDS011;1730;41.932;25.548;2024-03-02T12:00:32;58.73;;;36.77;;
3433;SDS011;1730;41.932;25.548;2024-03-02T12:03:05;59.97;;;37.03;;
3433;SDS011;1730;41.932;25.548;2024-03-02T12:05:31;62.80;;;36.30;;
3433;SDS011;1730;41.932;25.548;2024-03-02T12:07:58;68.40;;;36.50;;
3433;SDS011;1730;41.932;25.548;2024-03-02T12:10:27;56.70;;;35.67;;
3433;SDS011;1730;41.932;25.548;2024-03-02T12:12:57;59.60;;;37.60;;
3433;SDS011;1730;41.932;25.548;2024-03-02T12:15:27;60.97;;;36.60;;
3433;SDS011;1730;41.932;25.548;2024-03-02T12:17:55;54.40;;;37.33;;
3433;SDS011;1730;41.932;25.548;2024-03-02T12:20:22;63.03;;;37.70;;
3433;SDS011;1730;41.932;25.548;2024-03-02T12:22:49;59.57;;;33.63;;
3433;SDS011;1730;41.932;25.548;2024-03-02T12:25:17;54.87;;;34.60;;
3433;SDS011;1730;41.932;25.548;2024-03-02T12:27:45;51.20;;;33.57;;
3433;SDS011;1730;41.932;25.548;2024-03-02T12:30:11;56.37;;;34.97;;
3433;SDS011;1730;41.932;25.548;2024-03-02T12:32:47;61.33;;;37.93;;
3433;SDS011;1730;41.932;25.548;2024-03-02T12:35:24;57.03;;;31.97;;
3433;SDS011;1730;41.932;25.548;2024-03-02T12:38:10;60.83;;;35.50;;
3433;SDS011;1730;41.932;25.548;2024-03-02T12:40:39;51.40;;;34.33;;
3433;SDS011;1730;41.932;25.548;2024-03-02T12:43:05;59.03;;;34.07;;
3433;SDS011;1730;41.932;25.548;2024-03-02T12:45:31;59.90;;;34.27;;
3433;SDS011;1730;41.932;25.548;2024-03-02T12:47:57;55.07;;;35.00;;
3433;SDS011;1730;41.932;25.548;2024-03-02T12:50:27;57.40;;;35.13;;
3433;SDS011;1730;41.932;25.548;2024-03-02T12:52:54;67.23;;;38.27;;
3433;SDS011;1730;41.932;25.548;2024-03-02T12:55:23;72.70;;;37.70;;
3433;SDS011;1730;41.932;25.548;2024-03-02T12:57:56;65.60;;;37.40;;
3433;SDS011;1730;41.932;25.548;2024-03-02T13:00:24;61.93;;;36.93;;
3433;SDS011;1730;41.932;25.548;2024-03-02T13:02:53;61.47;;;36.57;;
3433;SDS011;1730;41.932;25.548;2024-03-02T13:05:32;56.10;;;34.70;;
3433;SDS011;1730;41.932;25.548;2024-03-02T13:07:59;60.20;;;36.00;;
3433;SDS011;1730;41.932;25.548;2024-03-02T13:10:28;62.13;;;35.30;;
3433;SDS011;1730;41.932;25.548;2024-03-02T13:12:54;57.70;;;35.80;;
3433;SDS011;1730;41.932;25.548;2024-03-02T13:15:21;57.63;;;33.67;;
3433;SDS011;1730;41.932;25.548;2024-03-02T13:17:47;51.50;;;31.27;;
3433;SDS011;1730;41.932;25.548;2024-03-02T13:20:14;58.00;;;32.87;;
3433;SDS011;1730;41.932;25.548;2024-03-02T13:22:40;51.63;;;33.57;;
3433;SDS011;1730;41.932;25.548;2024-03-02T13:25:06;62.23;;;33.73;;
3433;SDS011;1730;41.932;25.548;2024-03-02T13:27:35;57.00;;;32.67;;
3433;SDS011;1730;41.932;25.548;2024-03-02T13:30:02;49.00;;;31.03;;
3433;SDS011;1730;41.932;25.548;2024-03-02T13:32:31;55.03;;;33.63;;
3433;SDS011;1730;41.932;25.548;2024-03-02T13:34:56;59.73;;;33.40;;
3433;SDS011;1730;41.932;25.548;2024-03-02T13:37:22;54.40;;;32.97;;
3433;SDS011;1730;41.932;25.548;2024-03-02T13:39:48;58.10;;;34.80;;
3433;SDS011;1730;41.932;25.548;2024-03-02T13:42:14;56.57;;;32.87;;
3433;SDS011;1730;41.932;25.548;2024-03-02T13:44:40;51.60;;;33.47;;
3433;SDS011;1730;41.932;25.548;2024-03-02T13:47:10;48.10;;;29.93;;
3433;SDS011;1730;41.932;25.548;2024-03-02T13:49:37;57.47;;;35.83;;
3433;SDS011;1730;41.932;25.548;2024-03-02T13:52:06;48.87;;;32.83;;
3433;SDS011;1730;41.932;25.548;2024-03-02T13:54:46;49.27;;;30.97;;
3433;SDS011;1730;41.932;25.548;2024-03-02T13:57:12;47.60;;;31.30;;
3433;SDS011;1730;41.932;25.548;2024-03-02T13:59:39;54.10;;;33.67;;
3433;SDS011;1730;41.932;25.548;2024-03-02T14:02:07;46.30;;;31.20;;
3433;SDS011;1730;41.932;25.548;2024-03-02T14:04:34;60.60;;;35.17;;
3433;SDS011;1730;41.932;25.548;2024-03-02T14:07:00;50.70;;;32.93;;
3433;SDS011;1730;41.932;25.548;2024-03-02T14:09:26;48.93;;;30.63;;
3433;SDS011;1730;41.932;25.548;2024-03-02T14:11:52;48.70;;;29.90;;
3433;SDS011;1730;41.932;25.548;2024-03-02T14:14:19;42.93;;;29.57;;
3433;SDS011;1730;41.932;25.548;2024-03-02T14:16:45;48.83;;;29.63;;
3433;SDS011;1730;41.932;25.548;2024-03-02T14:19:12;42.63;;;29.70;;
3433;SDS011;1730;41.932;25.548;2024-03-02T14:21:39;47.40;;;30.33;;
3433;SDS011;1730;41.932;25.548;2024-03-02T14:24:05;49.57;;;33.30;;
3433;SDS011;1730;41.932;25.548;2024-03-02T14:26:34;47.80;;;32.13;;
3433;SDS011;1730;41.932;25.548;2024-03-02T14:29:00;50.73;;;33.70;;
3433;SDS011;1730;41.932;25.548;2024-03-02T14:31:29;50.27;;;32.40;;
3433;SDS011;1730;41.932;25.548;2024-03-02T14:33:56;50.87;;;32.73;;
3433;SDS011;1730;41.932;25.548;2024-03-02T14:36:21;50.63;;;32.63;;
3433;SDS011;1730;41.932;25.548;2024-03-02T14:38:47;52.93;;;31.80;;
3433;SDS011;1730;41.932;25.548;2024-03-02T14:41:13;53.80;;;33.10;;
3433;SDS011;1730;41.932;25.548;2024-03-02T14:43:39;48.27;;;31.87;;
3433;SDS011;1730;41.932;25.548;2024-03-02T14:46:05;54.63;;;34.60;;
3433;SDS011;1730;41.932;25.548;2024-03-02T14:48:33;51.07;;;34.00;;